Pearl Of Scandinavia — OWFU2 — position and weather

sailwx.info

Track history (hours):
 
Tides and Currents Weather Stations Pressure Air Temp Water Temp Dewpoint Dewpoint Depression Visibility Wind Speed Wind Dir Waves Ship Positions

Pearl Of Scandinavia

Last reported at 2019-Sep-17 08:30 UTC. Time now 2019-Sep-17 08:50 UTC.
Position N 59°54' E 010°45'.

Length 176.4 m; beam 34 m; draft 6.215 m.

Type: Ship. MMSI: 219945000.

Date/timePositionNaut miles runAvg speedWind from/ knotsBaromVisibWave heightAir tempDewpointWater temp
2019-Sep-17 08:30N 59°54' E 010°45'0 0.0
2019-Sep-17 08:00N 59°54' E 010°45'0 0.7
2019-Sep-17 07:30N 59°54' E 010°44'714.3
2019-Sep-17 07:00N 59°49' E 010°35'714.8
2019-Sep-17 06:30N 59°41' E 010°36'713.9
2019-Sep-17 06:00N 59°34' E 010°38'816.3
2019-Sep-17 05:30N 59°27' E 010°34'815.7
2019-Sep-17 05:00N 59°19' E 010°36'815.8
2019-Sep-17 04:30N 59°11' E 010°39'815.8
2019-Sep-17 04:00N 59°03' E 010°41'816.3
2019-Sep-17 03:30N 58°55' E 010°43'816.4
2019-Sep-17 03:00N 58°47' E 010°45'815.8
2019-Sep-17 02:30N 58°39' E 010°47'815.7
2019-Sep-17 02:00N 58°32' E 010°51'816.0
2019-Sep-17 01:30N 58°24' E 010°56'917.1
2019-Sep-17 01:00N 58°16' E 011°01'917.7
2019-Sep-17 00:30N 58°07' E 011°06'917.5
2019-Sep-17 00:01N 57°59' E 011°11'917.0
2019-Sep-16 23:30N 57°51' E 011°15'816.6
2019-Sep-16 23:00N 57°43' E 011°20'816.8
2019-Sep-16 22:30N 57°35' E 011°25'917.2
2019-Sep-16 22:00N 57°27' E 011°30'917.4
2019-Sep-16 21:30N 57°18' E 011°34'917.3
2019-Sep-16 21:00N 57°10' E 011°39'816.6
2019-Sep-16 20:30N 57°02' E 011°45'6215.2
2019-Sep-16 16:24N 56°06' E 012°35'614.5
2019-Sep-16 16:00N 56°02' E 012°40'815.2
2019-Sep-16 15:30N 55°54' E 012°44'815.3
2019-Sep-16 15:00N 55°47' E 012°42'611.7
2019-Sep-16 14:30N 55°42' E 012°36'0 0.1
2019-Sep-16 14:00N 55°42' E 012°36'0 0.0
2019-Sep-16 13:30N 55°42' E 012°36'0 0.0
2019-Sep-16 13:00N 55°42' E 012°36'0 0.0
2019-Sep-16 12:30N 55°42' E 012°36'0 0.0
2019-Sep-16 11:57N 55°42' E 012°36'0 0.0
2019-Sep-16 11:30N 55°42' E 012°36'0 0.0
2019-Sep-16 11:00N 55°42' E 012°36'0 0.0
2019-Sep-16 10:30N 55°42' E 012°36'0 0.0
2019-Sep-16 10:00N 55°42' E 012°36'0 0.0
2019-Sep-16 09:30N 55°42' E 012°36'0 0.0
2019-Sep-16 09:00N 55°42' E 012°36'0 0.0
2019-Sep-16 08:30N 55°42' E 012°36'0 0.5
2019-Sep-16 08:00N 55°42' E 012°36'510.8
2019-Sep-16 07:30N 55°47' E 012°42'815.6
2019-Sep-16 07:00N 55°54' E 012°39'917.3
2019-Sep-16 06:30N 56°03' E 012°39'7518.5
2019-Sep-16 02:27N 57°09' E 011°36'818.7
2019-Sep-16 02:00N 57°17' E 011°31'918.6
2019-Sep-16 01:30N 57°26' E 011°25'918.4
2019-Sep-16 01:00N 57°35' E 011°19'918.9
2019-Sep-16 00:30N 57°43' E 011°12'918.7
2019-Sep-16 00:00N 57°52' E 011°05'917.9
2019-Sep-15 23:30N 58°00' E 010°58'917.5
2019-Sep-15 23:00N 58°08' E 010°52'815.7
2019-Sep-15 22:30N 58°15' E 010°46'815.7
2019-Sep-15 22:00N 58°23' E 010°42'815.3
2019-Sep-15 21:30N 58°31' E 010°41'815.3
2019-Sep-15 21:00N 58°38' E 010°39'815.6
2019-Sep-15 20:30N 58°46' E 010°37'815.3
2019-Sep-15 20:00N 58°54' E 010°36'713.8
2019-Sep-15 19:30N 59°01' E 010°36'612.5
2019-Sep-15 19:00N 59°07' E 010°37'510.9
2019-Sep-15 18:30N 59°12' E 010°38'611.7
2019-Sep-15 18:00N 59°18' E 010°36'611.7
2019-Sep-15 17:30N 59°24' E 010°34'611.4
2019-Sep-15 17:00N 59°29' E 010°34'611.2
2019-Sep-15 16:30N 59°35' E 010°38'611.8
2019-Sep-15 16:00N 59°41' E 010°37'611.9
2019-Sep-15 15:30N 59°46' E 010°33'612.9
2019-Sep-15 15:00N 59°52' E 010°38'4 7.2
2019-Sep-15 14:29N 59°54' E 010°45'0 0.0
2019-Sep-15 13:59N 59°54' E 010°45'0 0.0
2019-Sep-15 13:29N 59°54' E 010°45'0 0.0
2019-Sep-15 12:59N 59°54' E 010°45'0 0.0
2019-Sep-15 12:29N 59°54' E 010°45'0 0.0
2019-Sep-15 11:59N 59°54' E 010°45'0 0.0
2019-Sep-15 11:29N 59°54' E 010°45'0 0.0
2019-Sep-15 10:59N 59°54' E 010°45'0 0.0
2019-Sep-15 10:29N 59°54' E 010°45'0 0.0
2019-Sep-15 09:59N 59°54' E 010°45'0 0.0
2019-Sep-15 09:29N 59°54' E 010°45'0 0.0
2019-Sep-15 08:59N 59°54' E 010°45'0 0.0
2019-Sep-15 08:29N 59°54' E 010°45'0 0.0
2019-Sep-15 07:59N 59°54' E 010°45'0 0.3
2019-Sep-15 07:30N 59°54' E 010°45'712.9
2019-Sep-15 07:00N 59°49' E 010°35'714.8
2019-Sep-15 06:29N 59°42' E 010°36'714.3
2019-Sep-15 06:00N 59°35' E 010°38'816.1
2019-Sep-15 05:30N 59°27' E 010°34'815.9
2019-Sep-15 05:00N 59°19' E 010°36'917.2
2019-Sep-15 04:30N 59°11' E 010°39'816.7
2019-Sep-15 04:00N 59°03' E 010°40'815.5
2019-Sep-15 03:30N 58°55' E 010°41'714.8
2019-Sep-15 03:00N 58°48' E 010°42'814.8
2019-Sep-15 02:30N 58°40' E 010°45'815.4
2019-Sep-15 02:00N 58°32' E 010°46'816.5
2019-Sep-15 01:30N 58°24' E 010°46'816.4
2019-Sep-15 01:00N 58°16' E 010°48'1116.3
2019-Sep-15 00:20N 58°06' E 010°54'516.3
2019-Sep-15 00:00N 58°01' E 010°58'816.2
2019-Sep-14 23:30N 57°53' E 011°03'815.9
2019-Sep-14 23:00N 57°46' E 011°08'816.5
2019-Sep-14 22:30N 57°39' E 011°16'816.4
2019-Sep-14 22:00N 57°32' E 011°24'816.5
2019-Sep-14 21:30N 57°24' E 011°31'816.3
2019-Sep-14 21:00N 57°17' E 011°35'816.5
2019-Sep-14 20:30N 57°09' E 011°40'916.7
2019-Sep-14 19:59N 57°00' E 011°45'6116.4
2019-Sep-14 16:18N 56°06' E 012°35'515.9
2019-Sep-14 16:00N 56°03' E 012°40'815.8
2019-Sep-14 15:30N 55°55' E 012°44'815.2
2019-Sep-14 15:00N 55°48' E 012°43'612.8
2019-Sep-14 14:31N 55°42' E 012°36'0 0.5
2019-Sep-14 14:00N 55°42' E 012°36'0 0.0
2019-Sep-14 13:27N 55°42' E 012°36'0 0.0
2019-Sep-14 12:48N 55°42' E 012°36'0 0.0
2019-Sep-14 12:21N 55°42' E 012°36'0 0.0
2019-Sep-14 12:00N 55°42' E 012°36'0 0.0
2019-Sep-14 11:24N 55°42' E 012°36'0 0.0
2019-Sep-14 10:48N 55°42' E 012°36'0 0.0
2019-Sep-14 10:27N 55°42' E 012°36'0 0.0
2019-Sep-14 10:00N 55°42' E 012°36'0 0.0
2019-Sep-14 09:30N 55°42' E 012°36'0 0.0
2019-Sep-14 09:00N 55°42' E 012°36'0 0.0
2019-Sep-14 08:27N 55°42' E 012°36'0 0.0
2019-Sep-14 08:00N 55°42' E 012°36'0 0.7
2019-Sep-14 07:30N 55°42' E 012°36'510.8
2019-Sep-14 07:00N 55°47' E 012°41'714.8
2019-Sep-14 06:30N 55°54' E 012°39'816.9
2019-Sep-14 06:00N 56°03' E 012°39'916.8
2019-Sep-14 05:30N 56°09' E 012°29'6715.7
2019-Sep-14 01:12N 57°13' E 011°51'316.4
2019-Sep-14 01:00N 57°16' E 011°47'816.4
2019-Sep-14 00:31N 57°23' E 011°39'816.8
2019-Sep-14 00:01N 57°29' E 011°30'917.1
2019-Sep-13 23:31N 57°37' E 011°24'917.0
2019-Sep-13 23:00N 57°45' E 011°17'917.0
2019-Sep-13 22:30N 57°53' E 011°10'816.2
2019-Sep-13 22:00N 58°00' E 011°04'815.8
2019-Sep-13 21:31N 58°07' E 010°58'816.0
2019-Sep-13 21:00N 58°14' E 010°51'916.9
2019-Sep-13 20:30N 58°22' E 010°44'815.9
2019-Sep-13 20:00N 58°30' E 010°38'816.3
2019-Sep-13 19:30N 58°38' E 010°38'816.2
2019-Sep-13 18:59N 58°46' E 010°38'917.6
2019-Sep-13 18:30N 58°54' E 010°38'917.7
2019-Sep-13 18:00N 59°03' E 010°38'917.3
2019-Sep-13 17:30N 59°12' E 010°38'917.4
2019-Sep-13 17:01N 59°20' E 010°35'917.2
2019-Sep-13 16:30N 59°29' E 010°34'917.0
2019-Sep-13 16:00N 59°37' E 010°37'714.2
2019-Sep-13 15:30N 59°44' E 010°33'816.5
2019-Sep-13 15:01N 59°52' E 010°38'4 8.0
2019-Sep-13 14:30N 59°54' E 010°45'0 0.0
2019-Sep-13 13:58N 59°54' E 010°45'0 0.0
2019-Sep-13 13:28N 59°54' E 010°45'0 0.0
2019-Sep-13 12:58N 59°54' E 010°45'0 0.0
2019-Sep-13 12:28N 59°54' E 010°45'0 0.0
2019-Sep-13 11:58N 59°54' E 010°45'0 0.0
2019-Sep-13 11:28N 59°54' E 010°45'0 0.0
2019-Sep-13 10:58N 59°54' E 010°45'0 0.0
2019-Sep-13 10:28N 59°54' E 010°45'0 0.0
2019-Sep-13 09:58N 59°54' E 010°45'0 0.0
2019-Sep-13 09:28N 59°54' E 010°45'0 0.0
2019-Sep-13 08:58N 59°54' E 010°45'0 0.0
2019-Sep-13 08:28N 59°54' E 010°45'0 0.0
2019-Sep-13 07:58N 59°54' E 010°45'0 0.6
2019-Sep-13 07:29N 59°54' E 010°44'714.0
2019-Sep-13 07:00N 59°49' E 010°35'714.8
2019-Sep-13 06:30N 59°42' E 010°36'713.7
2019-Sep-13 06:01N 59°35' E 010°38'815.2
2019-Sep-13 05:31N 59°28' E 010°34'815.4
2019-Sep-13 05:01N 59°20' E 010°36'816.4
2019-Sep-13 04:31N 59°12' E 010°39'816.6
2019-Sep-13 04:01N 59°04' E 010°41'816.0
2019-Sep-13 03:30N 58°56' E 010°43'815.5
2019-Sep-13 03:00N 58°48' E 010°45'815.5
2019-Sep-13 02:30N 58°40' E 010°48'1616.0
2019-Sep-13 01:30N 58°25' E 010°56'917.6
2019-Sep-13 01:00N 58°17' E 011°02'917.4
2019-Sep-13 00:30N 58°08' E 011°07'816.8
2019-Sep-13 00:00N 58°00' E 011°12'816.6
2019-Sep-12 23:30N 57°53' E 011°17'817.0
2019-Sep-12 23:00N 57°45' E 011°22'816.6
2019-Sep-12 22:30N 57°37' E 011°28'816.4
2019-Sep-12 22:00N 57°29' E 011°34'815.9
2019-Sep-12 21:30N 57°23' E 011°42'815.6
2019-Sep-12 21:00N 57°16' E 011°49'816.0
2019-Sep-12 20:30N 57°09' E 011°56'816.7
2019-Sep-12 20:00N 57°01' E 012°02'5715.9
2019-Sep-12 16:24N 56°07' E 012°34'614.2
2019-Sep-12 16:00N 56°02' E 012°40'714.8
2019-Sep-12 15:31N 55°55' E 012°44'815.0
2019-Sep-12 15:01N 55°48' E 012°43'612.8
2019-Sep-12 14:30N 55°42' E 012°36'0 0.5
2019-Sep-12 13:58N 55°42' E 012°36'0 0.0
2019-Sep-12 13:28N 55°42' E 012°36'0 0.0
2019-Sep-12 12:58N 55°42' E 012°36'0 0.0
2019-Sep-12 12:16N 55°42' E 012°36'0 0.0
2019-Sep-12 11:58N 55°42' E 012°36'0 0.0
2019-Sep-12 11:28N 55°42' E 012°36'0 0.0
2019-Sep-12 10:58N 55°42' E 012°36'0 0.0
2019-Sep-12 10:28N 55°42' E 012°36'0 0.0
2019-Sep-12 09:58N 55°42' E 012°36'0 0.0
2019-Sep-12 09:28N 55°42' E 012°36'0 0.0
2019-Sep-12 08:58N 55°42' E 012°36'0 0.0
2019-Sep-12 08:28N 55°42' E 012°36'0 0.0
2019-Sep-12 07:58N 55°42' E 012°36'0 0.7
2019-Sep-12 07:30N 55°42' E 012°36'611.1
2019-Sep-12 07:01N 55°47' E 012°42'815.1
2019-Sep-12 06:31N 55°54' E 012°39'815.7
2019-Sep-12 06:01N 56°02' E 012°39'917.3
2019-Sep-12 05:31N 56°09' E 012°30'1116.2
2019-Sep-12 04:52N 56°19' E 012°23'5816.1
2019-Sep-12 01:14N 57°14' E 011°51'315.4
2019-Sep-12 01:01N 57°17' E 011°47'815.9
2019-Sep-12 00:31N 57°23' E 011°38'815.9
2019-Sep-12 00:01N 57°30' E 011°30'816.2
2019-Sep-11 23:31N 57°37' E 011°23'816.3
2019-Sep-11 23:01N 57°45' E 011°17'816.7
2019-Sep-11 22:31N 57°53' E 011°11'816.7
2019-Sep-11 22:01N 58°00' E 011°04'817.0
2019-Sep-11 21:31N 58°08' E 010°57'816.9
2019-Sep-11 21:01N 58°15' E 010°50'816.6
2019-Sep-11 20:30N 58°23' E 010°44'816.3
2019-Sep-11 20:00N 58°31' E 010°38'815.9
2019-Sep-11 19:30N 58°39' E 010°38'815.9
2019-Sep-11 19:00N 58°47' E 010°38'815.7
2019-Sep-11 18:30N 58°54' E 010°38'815.7
2019-Sep-11 18:01N 59°02' E 010°38'816.1
2019-Sep-11 17:31N 59°10' E 010°38'816.7
2019-Sep-11 17:01N 59°18' E 010°35'816.5
2019-Sep-11 16:31N 59°27' E 010°33'816.1
2019-Sep-11 16:01N 59°34' E 010°38'714.8
2019-Sep-11 15:30N 59°42' E 010°36'713.9
2019-Sep-11 15:00N 59°49' E 010°34'714.0
2019-Sep-11 14:30N 59°54' E 010°43'1 1.5
2019-Sep-11 14:00N 59°54' E 010°45'0 0.0
2019-Sep-11 13:31N 59°54' E 010°45'0 0.0
2019-Sep-11 13:01N 59°54' E 010°45'0 0.0
2019-Sep-11 12:31N 59°54' E 010°45'0 0.0
2019-Sep-11 12:01N 59°54' E 010°45'0 0.0
2019-Sep-11 11:30N 59°54' E 010°45'0 0.0
2019-Sep-11 11:00N 59°54' E 010°45'0 0.0
2019-Sep-11 10:30N 59°54' E 010°45'0 0.0
2019-Sep-11 10:00N 59°54' E 010°45'0 0.0
2019-Sep-11 09:30N 59°54' E 010°45'0 0.0
2019-Sep-11 09:00N 59°54' E 010°45'0 0.0
2019-Sep-11 08:29N 59°54' E 010°45'0 0.0
2019-Sep-11 08:00N 59°54' E 010°45'0 0.2
2019-Sep-11 07:30N 59°54' E 010°45'612.1
2019-Sep-11 07:00N 59°50' E 010°36'714.8
2019-Sep-11 06:30N 59°42' E 010°36'714.6
2019-Sep-11 06:00N 59°35' E 010°38'917.0
2019-Sep-11 05:30N 59°27' E 010°34'815.8
2019-Sep-11 05:00N 59°19' E 010°36'816.0
2019-Sep-11 04:30N 59°12' E 010°39'815.8
2019-Sep-11 04:00N 59°04' E 010°39'815.8
2019-Sep-11 03:30N 58°56' E 010°38'815.8
2019-Sep-11 03:00N 58°48' E 010°37'815.8
2019-Sep-11 02:30N 58°40' E 010°38'816.0
2019-Sep-11 01:59N 58°32' E 010°39'815.8
2019-Sep-11 01:30N 58°24' E 010°43'816.0
2019-Sep-11 01:00N 58°17' E 010°47'916.0
2019-Sep-11 00:26N 58°08' E 010°54'716.1
2019-Sep-11 00:00N 58°01' E 010°57'816.2
2019-Sep-10 23:30N 57°54' E 011°02'816.0
2019-Sep-10 23:00N 57°46' E 011°07'816.0
2019-Sep-10 22:30N 57°40' E 011°15'816.1
2019-Sep-10 22:00N 57°33' E 011°23'815.9
2019-Sep-10 21:30N 57°26' E 011°30'816.2
2019-Sep-10 21:00N 57°18' E 011°35'816.3
2019-Sep-10 20:30N 57°10' E 011°39'816.6
2019-Sep-10 20:00N 57°02' E 011°44'3616.1
2019-Sep-10 17:48N 56°31' E 012°14'2616.3
2019-Sep-10 16:13N 56°07' E 012°33'417.3
2019-Sep-10 16:00N 56°05' E 012°37'816.4
2019-Sep-10 15:30N 55°57' E 012°43'816.3
2019-Sep-10 15:00N 55°49' E 012°43'714.6
2019-Sep-10 14:31N 55°43' E 012°37'1 1.6
2019-Sep-10 14:00N 55°42' E 012°36'0 0.0
2019-Sep-10 13:30N 55°42' E 012°36'0 0.0
2019-Sep-10 12:57N 55°42' E 012°36'0 0.0
2019-Sep-10 12:30N 55°42' E 012°36'0 0.0
2019-Sep-10 12:00N 55°42' E 012°36'0 0.0
2019-Sep-10 11:24N 55°42' E 012°36'0 0.0
2019-Sep-10 11:00N 55°42' E 012°36'0 0.0
2019-Sep-10 10:30N 55°42' E 012°36'0 0.0
2019-Sep-10 10:00N 55°42' E 012°36'0 0.0
2019-Sep-10 09:09N 55°42' E 012°36'0 0.0
2019-Sep-10 08:54N 55°42' E 012°36'0 0.0
2019-Sep-10 08:27N 55°42' E 012°36'0 0.0
2019-Sep-10 07:57N 55°42' E 012°36'0 0.5
2019-Sep-10 07:30N 55°42' E 012°36'5 9.6
2019-Sep-10 07:01N 55°46' E 012°41'714.4
2019-Sep-10 06:31N 55°53' E 012°40'815.0
2019-Sep-10 06:00N 56°01' E 012°40'714.9
2019-Sep-10 05:31N 56°07' E 012°32'815.0
2019-Sep-10 05:01N 56°14' E 012°26'6215.0
2019-Sep-10 00:52N 57°13' E 011°53'616.2
2019-Sep-10 00:30N 57°18' E 011°46'815.9
2019-Sep-10 00:01N 57°24' E 011°38'816.2
2019-Sep-09 23:30N 57°31' E 011°28'816.2
2019-Sep-09 23:00N 57°37' E 011°19'815.5
2019-Sep-09 22:30N 57°43' E 011°09'816.0
2019-Sep-09 22:00N 57°50' E 011°05'815.9
2019-Sep-09 21:31N 57°58' E 010°60'816.6
2019-Sep-09 21:00N 58°06' E 010°55'917.2
2019-Sep-09 20:30N 58°14' E 010°49'1216.9
2019-Sep-09 19:49N 58°25' E 010°42'516.6
2019-Sep-09 19:30N 58°30' E 010°40'817.0
2019-Sep-09 19:00N 58°38' E 010°38'917.0
2019-Sep-09 18:30N 58°47' E 010°37'917.3
2019-Sep-09 18:00N 58°55' E 010°38'917.9
2019-Sep-09 17:30N 59°04' E 010°38'918.6
2019-Sep-09 17:01N 59°14' E 010°37'918.8
2019-Sep-09 16:31N 59°23' E 010°34'917.9
2019-Sep-09 16:00N 59°32' E 010°36'816.9
2019-Sep-09 15:30N 59°40' E 010°37'816.1
2019-Sep-09 15:00N 59°48' E 010°34'715.3
2019-Sep-09 14:30N 59°54' E 010°43'1 1.2
2019-Sep-09 13:58N 59°54' E 010°45'0 0.0
2019-Sep-09 13:28N 59°54' E 010°45'0 0.0
2019-Sep-09 12:58N 59°54' E 010°45'0 0.0
2019-Sep-09 12:28N 59°54' E 010°45'0 0.0
2019-Sep-09 11:58N 59°54' E 010°45'0 0.0
2019-Sep-09 11:28N 59°54' E 010°45'0 0.0
2019-Sep-09 10:58N 59°54' E 010°45'0 0.0
2019-Sep-09 10:28N 59°54' E 010°45'0 0.0
2019-Sep-09 09:58N 59°54' E 010°45'0 0.0
2019-Sep-09 09:28N 59°54' E 010°45'0 0.0
2019-Sep-09 08:58N 59°54' E 010°45'0 0.0
2019-Sep-09 08:28N 59°54' E 010°45'0 0.0
2019-Sep-09 07:58N 59°54' E 010°45'1 2.0
2019-Sep-09 07:30N 59°54' E 010°43'815.6
2019-Sep-09 07:00N 59°47' E 010°35'5 9.9
2019-Sep-09 06:30N 59°42' E 010°36'713.8
2019-Sep-09 06:00N 59°36' E 010°38'815.8
2019-Sep-09 05:30N 59°28' E 010°34'815.8
2019-Sep-09 05:00N 59°20' E 010°36'815.8
2019-Sep-09 04:30N 59°13' E 010°39'816.0
2019-Sep-09 04:00N 59°05' E 010°41'815.6
2019-Sep-09 03:30N 58°57' E 010°41'815.7
2019-Sep-09 03:00N 58°49' E 010°44'1615.6
2019-Sep-09 02:00N 58°34' E 010°50'815.5
2019-Sep-09 01:30N 58°26' E 010°55'815.8
2019-Sep-09 01:00N 58°19' E 011°00'816.7
2019-Sep-09 00:30N 58°11' E 011°05'917.4
2019-Sep-09 00:00N 58°03' E 011°10'816.9
2019-Sep-08 23:30N 57°55' E 011°15'816.7
2019-Sep-08 23:00N 57°47' E 011°21'816.7
2019-Sep-08 22:30N 57°39' E 011°26'817.0
2019-Sep-08 22:00N 57°31' E 011°31'816.4
2019-Sep-08 21:30N 57°24' E 011°40'816.6
2019-Sep-08 21:00N 57°18' E 011°48'816.4
2019-Sep-08 20:30N 57°10' E 011°55'816.3
2019-Sep-08 20:00N 57°03' E 012°01'5915.9
2019-Sep-08 16:17N 56°07' E 012°34'517.0
2019-Sep-08 16:00N 56°03' E 012°40'816.4
2019-Sep-08 15:30N 55°55' E 012°44'815.9
2019-Sep-08 15:00N 55°47' E 012°42'612.1
2019-Sep-08 14:30N 55°42' E 012°36'0 0.2
2019-Sep-08 13:58N 55°42' E 012°36'0 0.0
2019-Sep-08 13:28N 55°42' E 012°36'0 0.0
2019-Sep-08 12:58N 55°42' E 012°36'0 0.0
2019-Sep-08 12:28N 55°42' E 012°36'0 0.0
2019-Sep-08 11:58N 55°42' E 012°36'0 0.0
2019-Sep-08 11:28N 55°42' E 012°36'0 0.0
2019-Sep-08 10:58N 55°42' E 012°36'0 0.0
2019-Sep-08 10:22N 55°42' E 012°36'0 0.0
2019-Sep-08 09:58N 55°42' E 012°36'0 0.0
2019-Sep-08 09:28N 55°42' E 012°36'0 0.0
2019-Sep-08 08:58N 55°42' E 012°36'0 0.0
2019-Sep-08 08:25N 55°42' E 012°36'0 0.0
2019-Sep-08 07:58N 55°42' E 012°36'0 0.7
2019-Sep-08 07:30N 55°42' E 012°36'5 9.4
2019-Sep-08 07:00N 55°46' E 012°41'714.2
2019-Sep-08 06:30N 55°53' E 012°39'815.5
2019-Sep-08 06:01N 56°01' E 012°40'914.9
2019-Sep-08 05:25N 56°08' E 012°30'6915.7
2019-Sep-08 01:02N 57°13' E 011°51'016.3
2019-Sep-08 01:01N 57°14' E 011°51'815.9
2019-Sep-08 00:30N 57°20' E 011°43'816.2
2019-Sep-08 00:01N 57°27' E 011°34'816.4
2019-Sep-07 23:30N 57°34' E 011°26'816.9
2019-Sep-07 23:01N 57°41' E 011°20'917.2
2019-Sep-07 22:31N 57°49' E 011°13'816.9
2019-Sep-07 22:01N 57°57' E 011°07'816.8
2019-Sep-07 21:30N 58°05' E 010°60'816.2
2019-Sep-07 21:00N 58°12' E 010°53'816.5
2019-Sep-07 20:30N 58°19' E 010°47'916.7
2019-Sep-07 19:58N 58°28' E 010°40'716.1
2019-Sep-07 19:30N 58°35' E 010°38'816.6
2019-Sep-07 19:00N 58°43' E 010°38'816.6
2019-Sep-07 18:30N 58°51' E 010°38'817.0
2019-Sep-07 18:00N 58°60' E 010°39'816.8
2019-Sep-07 17:30N 59°08' E 010°39'917.9
2019-Sep-07 17:01N 59°17' E 010°36'918.0
2019-Sep-07 16:31N 59°26' E 010°33'917.3
2019-Sep-07 16:01N 59°34' E 010°38'816.2
2019-Sep-07 15:30N 59°42' E 010°35'816.8
2019-Sep-07 15:00N 59°51' E 010°35'611.4
2019-Sep-07 14:30N 59°54' E 010°45'0 0.0
2019-Sep-07 14:00N 59°54' E 010°45'0 0.0
2019-Sep-07 13:30N 59°54' E 010°45'0 0.0
2019-Sep-07 13:00N 59°54' E 010°45'0 0.0
2019-Sep-07 12:30N 59°54' E 010°45'0 0.0
2019-Sep-07 12:00N 59°54' E 010°45'0 0.0
2019-Sep-07 11:30N 59°54' E 010°45'0 0.0
2019-Sep-07 11:00N 59°54' E 010°45'0 0.0
2019-Sep-07 10:30N 59°54' E 010°45'0 0.0
2019-Sep-07 10:00N 59°54' E 010°45'0 0.0
2019-Sep-07 09:30N 59°54' E 010°45'0 0.0
2019-Sep-07 09:00N 59°54' E 010°45'0 0.0
2019-Sep-07 08:30N 59°54' E 010°45'  
Track history (hours):
 
Tides and Currents Weather Stations Pressure Air Temp Water Temp Dewpoint Dewpoint Depression Visibility Wind Speed Wind Dir Waves Ship Positions

Pearl Of Scandinavia

Last reported at 2019-Sep-17 08:30 UTC. Time now 2019-Sep-17 08:50 UTC.
Position N 59°54' E 010°45'.

Length 176.4 m; beam 34 m; draft 6.215 m.

Type: Ship. MMSI: 219945000.

Date/timePositionNaut miles runAvg speedWind from/ knotsBaromVisibWave heightAir tempDewpointWater temp
2019-Sep-17 08:30N 59°54' E 010°45'0 0.0
2019-Sep-17 08:00N 59°54' E 010°45'0 0.7
2019-Sep-17 07:30N 59°54' E 010°44'714.3
2019-Sep-17 07:00N 59°49' E 010°35'714.8
2019-Sep-17 06:30N 59°41' E 010°36'713.9
2019-Sep-17 06:00N 59°34' E 010°38'816.3
2019-Sep-17 05:30N 59°27' E 010°34'815.7
2019-Sep-17 05:00N 59°19' E 010°36'815.8
2019-Sep-17 04:30N 59°11' E 010°39'815.8
2019-Sep-17 04:00N 59°03' E 010°41'816.3
2019-Sep-17 03:30N 58°55' E 010°43'816.4
2019-Sep-17 03:00N 58°47' E 010°45'815.8
2019-Sep-17 02:30N 58°39' E 010°47'815.7
2019-Sep-17 02:00N 58°32' E 010°51'816.0
2019-Sep-17 01:30N 58°24' E 010°56'917.1
2019-Sep-17 01:00N 58°16' E 011°01'917.7
2019-Sep-17 00:30N 58°07' E 011°06'917.5
2019-Sep-17 00:01N 57°59' E 011°11'917.0
2019-Sep-16 23:30N 57°51' E 011°15'816.6
2019-Sep-16 23:00N 57°43' E 011°20'816.8
2019-Sep-16 22:30N 57°35' E 011°25'917.2
2019-Sep-16 22:00N 57°27' E 011°30'917.4
2019-Sep-16 21:30N 57°18' E 011°34'917.3
2019-Sep-16 21:00N 57°10' E 011°39'816.6
2019-Sep-16 20:30N 57°02' E 011°45'6215.2
2019-Sep-16 16:24N 56°06' E 012°35'614.5
2019-Sep-16 16:00N 56°02' E 012°40'815.2
2019-Sep-16 15:30N 55°54' E 012°44'815.3
2019-Sep-16 15:00N 55°47' E 012°42'611.7
2019-Sep-16 14:30N 55°42' E 012°36'0 0.1
2019-Sep-16 14:00N 55°42' E 012°36'0 0.0
2019-Sep-16 13:30N 55°42' E 012°36'0 0.0
2019-Sep-16 13:00N 55°42' E 012°36'0 0.0
2019-Sep-16 12:30N 55°42' E 012°36'0 0.0
2019-Sep-16 11:57N 55°42' E 012°36'0 0.0
2019-Sep-16 11:30N 55°42' E 012°36'0 0.0
2019-Sep-16 11:00N 55°42' E 012°36'0 0.0
2019-Sep-16 10:30N 55°42' E 012°36'0 0.0
2019-Sep-16 10:00N 55°42' E 012°36'0 0.0
2019-Sep-16 09:30N 55°42' E 012°36'0 0.0
2019-Sep-16 09:00N 55°42' E 012°36'0 0.0
2019-Sep-16 08:30N 55°42' E 012°36'0 0.5
2019-Sep-16 08:00N 55°42' E 012°36'510.8
2019-Sep-16 07:30N 55°47' E 012°42'815.6
2019-Sep-16 07:00N 55°54' E 012°39'917.3
2019-Sep-16 06:30N 56°03' E 012°39'7518.5
2019-Sep-16 02:27N 57°09' E 011°36'818.7
2019-Sep-16 02:00N 57°17' E 011°31'918.6
2019-Sep-16 01:30N 57°26' E 011°25'918.4
2019-Sep-16 01:00N 57°35' E 011°19'918.9
2019-Sep-16 00:30N 57°43' E 011°12'918.7
2019-Sep-16 00:00N 57°52' E 011°05'917.9
2019-Sep-15 23:30N 58°00' E 010°58'917.5
2019-Sep-15 23:00N 58°08' E 010°52'815.7
2019-Sep-15 22:30N 58°15' E 010°46'815.7
2019-Sep-15 22:00N 58°23' E 010°42'815.3
2019-Sep-15 21:30N 58°31' E 010°41'815.3
2019-Sep-15 21:00N 58°38' E 010°39'815.6
2019-Sep-15 20:30N 58°46' E 010°37'815.3
2019-Sep-15 20:00N 58°54' E 010°36'713.8
2019-Sep-15 19:30N 59°01' E 010°36'612.5
2019-Sep-15 19:00N 59°07' E 010°37'510.9
2019-Sep-15 18:30N 59°12' E 010°38'611.7
2019-Sep-15 18:00N 59°18' E 010°36'611.7
2019-Sep-15 17:30N 59°24' E 010°34'611.4
2019-Sep-15 17:00N 59°29' E 010°34'611.2
2019-Sep-15 16:30N 59°35' E 010°38'611.8
2019-Sep-15 16:00N 59°41' E 010°37'611.9
2019-Sep-15 15:30N 59°46' E 010°33'612.9
2019-Sep-15 15:00N 59°52' E 010°38'4 7.2
2019-Sep-15 14:29N 59°54' E 010°45'0 0.0
2019-Sep-15 13:59N 59°54' E 010°45'0 0.0
2019-Sep-15 13:29N 59°54' E 010°45'0 0.0
2019-Sep-15 12:59N 59°54' E 010°45'0 0.0
2019-Sep-15 12:29N 59°54' E 010°45'0 0.0
2019-Sep-15 11:59N 59°54' E 010°45'0 0.0
2019-Sep-15 11:29N 59°54' E 010°45'0 0.0
2019-Sep-15 10:59N 59°54' E 010°45'0 0.0
2019-Sep-15 10:29N 59°54' E 010°45'0 0.0
2019-Sep-15 09:59N 59°54' E 010°45'0 0.0
2019-Sep-15 09:29N 59°54' E 010°45'0 0.0
2019-Sep-15 08:59N 59°54' E 010°45'0 0.0
2019-Sep-15 08:29N 59°54' E 010°45'0 0.0
2019-Sep-15 07:59N 59°54' E 010°45'0 0.3
2019-Sep-15 07:30N 59°54' E 010°45'712.9
2019-Sep-15 07:00N 59°49' E 010°35'714.8
2019-Sep-15 06:29N 59°42' E 010°36'714.3
2019-Sep-15 06:00N 59°35' E 010°38'816.1
2019-Sep-15 05:30N 59°27' E 010°34'815.9
2019-Sep-15 05:00N 59°19' E 010°36'917.2
2019-Sep-15 04:30N 59°11' E 010°39'816.7
2019-Sep-15 04:00N 59°03' E 010°40'815.5
2019-Sep-15 03:30N 58°55' E 010°41'714.8
2019-Sep-15 03:00N 58°48' E 010°42'814.8
2019-Sep-15 02:30N 58°40' E 010°45'815.4
2019-Sep-15 02:00N 58°32' E 010°46'816.5
2019-Sep-15 01:30N 58°24' E 010°46'816.4
2019-Sep-15 01:00N 58°16' E 010°48'1116.3
2019-Sep-15 00:20N 58°06' E 010°54'516.3
2019-Sep-15 00:00N 58°01' E 010°58'816.2
2019-Sep-14 23:30N 57°53' E 011°03'815.9
2019-Sep-14 23:00N 57°46' E 011°08'816.5
2019-Sep-14 22:30N 57°39' E 011°16'816.4
2019-Sep-14 22:00N 57°32' E 011°24'816.5
2019-Sep-14 21:30N 57°24' E 011°31'816.3
2019-Sep-14 21:00N 57°17' E 011°35'816.5
2019-Sep-14 20:30N 57°09' E 011°40'916.7
2019-Sep-14 19:59N 57°00' E 011°45'6116.4
2019-Sep-14 16:18N 56°06' E 012°35'515.9
2019-Sep-14 16:00N 56°03' E 012°40'815.8
2019-Sep-14 15:30N 55°55' E 012°44'815.2
2019-Sep-14 15:00N 55°48' E 012°43'612.8
2019-Sep-14 14:31N 55°42' E 012°36'0 0.5
2019-Sep-14 14:00N 55°42' E 012°36'0 0.0
2019-Sep-14 13:27N 55°42' E 012°36'0 0.0
2019-Sep-14 12:48N 55°42' E 012°36'0 0.0
2019-Sep-14 12:21N 55°42' E 012°36'0 0.0
2019-Sep-14 12:00N 55°42' E 012°36'0 0.0
2019-Sep-14 11:24N 55°42' E 012°36'0 0.0
2019-Sep-14 10:48N 55°42' E 012°36'0 0.0
2019-Sep-14 10:27N 55°42' E 012°36'0 0.0
2019-Sep-14 10:00N 55°42' E 012°36'0 0.0
2019-Sep-14 09:30N 55°42' E 012°36'0 0.0
2019-Sep-14 09:00N 55°42' E 012°36'0 0.0
2019-Sep-14 08:27N 55°42' E 012°36'0 0.0
2019-Sep-14 08:00N 55°42' E 012°36'0 0.7
2019-Sep-14 07:30N 55°42' E 012°36'510.8
2019-Sep-14 07:00N 55°47' E 012°41'714.8
2019-Sep-14 06:30N 55°54' E 012°39'816.9
2019-Sep-14 06:00N 56°03' E 012°39'916.8
2019-Sep-14 05:30N 56°09' E 012°29'6715.7
2019-Sep-14 01:12N 57°13' E 011°51'316.4
2019-Sep-14 01:00N 57°16' E 011°47'816.4
2019-Sep-14 00:31N 57°23' E 011°39'816.8
2019-Sep-14 00:01N 57°29' E 011°30'917.1
2019-Sep-13 23:31N 57°37' E 011°24'917.0
2019-Sep-13 23:00N 57°45' E 011°17'917.0
2019-Sep-13 22:30N 57°53' E 011°10'816.2
2019-Sep-13 22:00N 58°00' E 011°04'815.8
2019-Sep-13 21:31N 58°07' E 010°58'816.0
2019-Sep-13 21:00N 58°14' E 010°51'916.9
2019-Sep-13 20:30N 58°22' E 010°44'815.9
2019-Sep-13 20:00N 58°30' E 010°38'816.3
2019-Sep-13 19:30N 58°38' E 010°38'816.2
2019-Sep-13 18:59N 58°46' E 010°38'917.6
2019-Sep-13 18:30N 58°54' E 010°38'917.7
2019-Sep-13 18:00N 59°03' E 010°38'917.3
2019-Sep-13 17:30N 59°12' E 010°38'917.4
2019-Sep-13 17:01N 59°20' E 010°35'917.2
2019-Sep-13 16:30N 59°29' E 010°34'917.0
2019-Sep-13 16:00N 59°37' E 010°37'714.2
2019-Sep-13 15:30N 59°44' E 010°33'816.5
2019-Sep-13 15:01N 59°52' E 010°38'4 8.0
2019-Sep-13 14:30N 59°54' E 010°45'0 0.0
2019-Sep-13 13:58N 59°54' E 010°45'0 0.0
2019-Sep-13 13:28N 59°54' E 010°45'0 0.0
2019-Sep-13 12:58N 59°54' E 010°45'0 0.0
2019-Sep-13 12:28N 59°54' E 010°45'0 0.0
2019-Sep-13 11:58N 59°54' E 010°45'0 0.0
2019-Sep-13 11:28N 59°54' E 010°45'0 0.0
2019-Sep-13 10:58N 59°54' E 010°45'0 0.0
2019-Sep-13 10:28N 59°54' E 010°45'0 0.0
2019-Sep-13 09:58N 59°54' E 010°45'0 0.0
2019-Sep-13 09:28N 59°54' E 010°45'0 0.0
2019-Sep-13 08:58N 59°54' E 010°45'0 0.0
2019-Sep-13 08:28N 59°54' E 010°45'0 0.0
2019-Sep-13 07:58N 59°54' E 010°45'0 0.6
2019-Sep-13 07:29N 59°54' E 010°44'714.0
2019-Sep-13 07:00N 59°49' E 010°35'714.8
2019-Sep-13 06:30N 59°42' E 010°36'713.7
2019-Sep-13 06:01N 59°35' E 010°38'815.2
2019-Sep-13 05:31N 59°28' E 010°34'815.4
2019-Sep-13 05:01N 59°20' E 010°36'816.4
2019-Sep-13 04:31N 59°12' E 010°39'816.6
2019-Sep-13 04:01N 59°04' E 010°41'816.0
2019-Sep-13 03:30N 58°56' E 010°43'815.5
2019-Sep-13 03:00N 58°48' E 010°45'815.5
2019-Sep-13 02:30N 58°40' E 010°48'1616.0
2019-Sep-13 01:30N 58°25' E 010°56'917.6
2019-Sep-13 01:00N 58°17' E 011°02'917.4
2019-Sep-13 00:30N 58°08' E 011°07'816.8
2019-Sep-13 00:00N 58°00' E 011°12'816.6
2019-Sep-12 23:30N 57°53' E 011°17'817.0
2019-Sep-12 23:00N 57°45' E 011°22'816.6
2019-Sep-12 22:30N 57°37' E 011°28'816.4
2019-Sep-12 22:00N 57°29' E 011°34'815.9
2019-Sep-12 21:30N 57°23' E 011°42'815.6
2019-Sep-12 21:00N 57°16' E 011°49'816.0
2019-Sep-12 20:30N 57°09' E 011°56'816.7
2019-Sep-12 20:00N 57°01' E 012°02'5715.9
2019-Sep-12 16:24N 56°07' E 012°34'614.2
2019-Sep-12 16:00N 56°02' E 012°40'714.8
2019-Sep-12 15:31N 55°55' E 012°44'815.0
2019-Sep-12 15:01N 55°48' E 012°43'612.8
2019-Sep-12 14:30N 55°42' E 012°36'0 0.5
2019-Sep-12 13:58N 55°42' E 012°36'0 0.0
2019-Sep-12 13:28N 55°42' E 012°36'0 0.0
2019-Sep-12 12:58N 55°42' E 012°36'0 0.0
2019-Sep-12 12:16N 55°42' E 012°36'0 0.0
2019-Sep-12 11:58N 55°42' E 012°36'0 0.0
2019-Sep-12 11:28N 55°42' E 012°36'0 0.0
2019-Sep-12 10:58N 55°42' E 012°36'0 0.0
2019-Sep-12 10:28N 55°42' E 012°36'0 0.0
2019-Sep-12 09:58N 55°42' E 012°36'0 0.0
2019-Sep-12 09:28N 55°42' E 012°36'0 0.0
2019-Sep-12 08:58N 55°42' E 012°36'0 0.0
2019-Sep-12 08:28N 55°42' E 012°36'0 0.0
2019-Sep-12 07:58N 55°42' E 012°36'0 0.7
2019-Sep-12 07:30N 55°42' E 012°36'611.1
2019-Sep-12 07:01N 55°47' E 012°42'815.1
2019-Sep-12 06:31N 55°54' E 012°39'815.7
2019-Sep-12 06:01N 56°02' E 012°39'917.3
2019-Sep-12 05:31N 56°09' E 012°30'1116.2
2019-Sep-12 04:52N 56°19' E 012°23'5816.1
2019-Sep-12 01:14N 57°14' E 011°51'315.4
2019-Sep-12 01:01N 57°17' E 011°47'815.9
2019-Sep-12 00:31N 57°23' E 011°38'815.9
2019-Sep-12 00:01N 57°30' E 011°30'816.2
2019-Sep-11 23:31N 57°37' E 011°23'816.3
2019-Sep-11 23:01N 57°45' E 011°17'816.7
2019-Sep-11 22:31N 57°53' E 011°11'816.7
2019-Sep-11 22:01N 58°00' E 011°04'817.0
2019-Sep-11 21:31N 58°08' E 010°57'816.9
2019-Sep-11 21:01N 58°15' E 010°50'816.6
2019-Sep-11 20:30N 58°23' E 010°44'816.3
2019-Sep-11 20:00N 58°31' E 010°38'815.9
2019-Sep-11 19:30N 58°39' E 010°38'815.9
2019-Sep-11 19:00N 58°47' E 010°38'815.7
2019-Sep-11 18:30N 58°54' E 010°38'815.7
2019-Sep-11 18:01N 59°02' E 010°38'816.1
2019-Sep-11 17:31N 59°10' E 010°38'816.7
2019-Sep-11 17:01N 59°18' E 010°35'816.5
2019-Sep-11 16:31N 59°27' E 010°33'816.1
2019-Sep-11 16:01N 59°34' E 010°38'714.8
2019-Sep-11 15:30N 59°42' E 010°36'713.9
2019-Sep-11 15:00N 59°49' E 010°34'714.0
2019-Sep-11 14:30N 59°54' E 010°43'1 1.5
2019-Sep-11 14:00N 59°54' E 010°45'0 0.0
2019-Sep-11 13:31N 59°54' E 010°45'0 0.0
2019-Sep-11 13:01N 59°54' E 010°45'0 0.0
2019-Sep-11 12:31N 59°54' E 010°45'0 0.0
2019-Sep-11 12:01N 59°54' E 010°45'0 0.0
2019-Sep-11 11:30N 59°54' E 010°45'0 0.0
2019-Sep-11 11:00N 59°54' E 010°45'0 0.0
2019-Sep-11 10:30N 59°54' E 010°45'0 0.0
2019-Sep-11 10:00N 59°54' E 010°45'0 0.0
2019-Sep-11 09:30N 59°54' E 010°45'0 0.0
2019-Sep-11 09:00N 59°54' E 010°45'0 0.0
2019-Sep-11 08:29N 59°54' E 010°45'0 0.0
2019-Sep-11 08:00N 59°54' E 010°45'0 0.2
2019-Sep-11 07:30N 59°54' E 010°45'612.1
2019-Sep-11 07:00N 59°50' E 010°36'714.8
2019-Sep-11 06:30N 59°42' E 010°36'714.6
2019-Sep-11 06:00N 59°35' E 010°38'917.0
2019-Sep-11 05:30N 59°27' E 010°34'815.8
2019-Sep-11 05:00N 59°19' E 010°36'816.0
2019-Sep-11 04:30N 59°12' E 010°39'815.8
2019-Sep-11 04:00N 59°04' E 010°39'815.8
2019-Sep-11 03:30N 58°56' E 010°38'815.8
2019-Sep-11 03:00N 58°48' E 010°37'815.8
2019-Sep-11 02:30N 58°40' E 010°38'816.0
2019-Sep-11 01:59N 58°32' E 010°39'815.8
2019-Sep-11 01:30N 58°24' E 010°43'816.0
2019-Sep-11 01:00N 58°17' E 010°47'916.0
2019-Sep-11 00:26N 58°08' E 010°54'716.1
2019-Sep-11 00:00N 58°01' E 010°57'816.2
2019-Sep-10 23:30N 57°54' E 011°02'816.0
2019-Sep-10 23:00N 57°46' E 011°07'816.0
2019-Sep-10 22:30N 57°40' E 011°15'816.1
2019-Sep-10 22:00N 57°33' E 011°23'815.9
2019-Sep-10 21:30N 57°26' E 011°30'816.2
2019-Sep-10 21:00N 57°18' E 011°35'816.3
2019-Sep-10 20:30N 57°10' E 011°39'816.6
2019-Sep-10 20:00N 57°02' E 011°44'3616.1
2019-Sep-10 17:48N 56°31' E 012°14'2616.3
2019-Sep-10 16:13N 56°07' E 012°33'417.3
2019-Sep-10 16:00N 56°05' E 012°37'816.4
2019-Sep-10 15:30N 55°57' E 012°43'816.3
2019-Sep-10 15:00N 55°49' E 012°43'714.6
2019-Sep-10 14:31N 55°43' E 012°37'1 1.6
2019-Sep-10 14:00N 55°42' E 012°36'0 0.0
2019-Sep-10 13:30N 55°42' E 012°36'0 0.0
2019-Sep-10 12:57N 55°42' E 012°36'0 0.0
2019-Sep-10 12:30N 55°42' E 012°36'0 0.0
2019-Sep-10 12:00N 55°42' E 012°36'0 0.0
2019-Sep-10 11:24N 55°42' E 012°36'0 0.0
2019-Sep-10 11:00N 55°42' E 012°36'0 0.0
2019-Sep-10 10:30N 55°42' E 012°36'0 0.0
2019-Sep-10 10:00N 55°42' E 012°36'0 0.0
2019-Sep-10 09:09N 55°42' E 012°36'0 0.0
2019-Sep-10 08:54N 55°42' E 012°36'0 0.0
2019-Sep-10 08:27N 55°42' E 012°36'0 0.0
2019-Sep-10 07:57N 55°42' E 012°36'0 0.5
2019-Sep-10 07:30N 55°42' E 012°36'5 9.6
2019-Sep-10 07:01N 55°46' E 012°41'714.4
2019-Sep-10 06:31N 55°53' E 012°40'815.0
2019-Sep-10 06:00N 56°01' E 012°40'714.9
2019-Sep-10 05:31N 56°07' E 012°32'815.0
2019-Sep-10 05:01N 56°14' E 012°26'6215.0
2019-Sep-10 00:52N 57°13' E 011°53'616.2
2019-Sep-10 00:30N 57°18' E 011°46'815.9
2019-Sep-10 00:01N 57°24' E 011°38'816.2
2019-Sep-09 23:30N 57°31' E 011°28'816.2
2019-Sep-09 23:00N 57°37' E 011°19'815.5
2019-Sep-09 22:30N 57°43' E 011°09'816.0
2019-Sep-09 22:00N 57°50' E 011°05'815.9
2019-Sep-09 21:31N 57°58' E 010°60'816.6
2019-Sep-09 21:00N 58°06' E 010°55'917.2
2019-Sep-09 20:30N 58°14' E 010°49'1216.9
2019-Sep-09 19:49N 58°25' E 010°42'516.6
2019-Sep-09 19:30N 58°30' E 010°40'817.0
2019-Sep-09 19:00N 58°38' E 010°38'917.0
2019-Sep-09 18:30N 58°47' E 010°37'917.3
2019-Sep-09 18:00N 58°55' E 010°38'917.9
2019-Sep-09 17:30N 59°04' E 010°38'918.6
2019-Sep-09 17:01N 59°14' E 010°37'918.8
2019-Sep-09 16:31N 59°23' E 010°34'917.9
2019-Sep-09 16:00N 59°32' E 010°36'816.9
2019-Sep-09 15:30N 59°40' E 010°37'816.1
2019-Sep-09 15:00N 59°48' E 010°34'715.3
2019-Sep-09 14:30N 59°54' E 010°43'1 1.2
2019-Sep-09 13:58N 59°54' E 010°45'0 0.0
2019-Sep-09 13:28N 59°54' E 010°45'0 0.0
2019-Sep-09 12:58N 59°54' E 010°45'0 0.0
2019-Sep-09 12:28N 59°54' E 010°45'0 0.0
2019-Sep-09 11:58N 59°54' E 010°45'0 0.0
2019-Sep-09 11:28N 59°54' E 010°45'0 0.0
2019-Sep-09 10:58N 59°54' E 010°45'0 0.0
2019-Sep-09 10:28N 59°54' E 010°45'0 0.0
2019-Sep-09 09:58N 59°54' E 010°45'0 0.0
2019-Sep-09 09:28N 59°54' E 010°45'0 0.0
2019-Sep-09 08:58N 59°54' E 010°45'0 0.0
2019-Sep-09 08:28N 59°54' E 010°45'0 0.0
2019-Sep-09 07:58N 59°54' E 010°45'1 2.0
2019-Sep-09 07:30N 59°54' E 010°43'815.6
2019-Sep-09 07:00N 59°47' E 010°35'5 9.9
2019-Sep-09 06:30N 59°42' E 010°36'713.8
2019-Sep-09 06:00N 59°36' E 010°38'815.8
2019-Sep-09 05:30N 59°28' E 010°34'815.8
2019-Sep-09 05:00N 59°20' E 010°36'815.8
2019-Sep-09 04:30N 59°13' E 010°39'816.0
2019-Sep-09 04:00N 59°05' E 010°41'815.6
2019-Sep-09 03:30N 58°57' E 010°41'815.7
2019-Sep-09 03:00N 58°49' E 010°44'1615.6
2019-Sep-09 02:00N 58°34' E 010°50'815.5
2019-Sep-09 01:30N 58°26' E 010°55'815.8
2019-Sep-09 01:00N 58°19' E 011°00'816.7
2019-Sep-09 00:30N 58°11' E 011°05'917.4
2019-Sep-09 00:00N 58°03' E 011°10'816.9
2019-Sep-08 23:30N 57°55' E 011°15'816.7
2019-Sep-08 23:00N 57°47' E 011°21'816.7
2019-Sep-08 22:30N 57°39' E 011°26'817.0
2019-Sep-08 22:00N 57°31' E 011°31'816.4
2019-Sep-08 21:30N 57°24' E 011°40'816.6
2019-Sep-08 21:00N 57°18' E 011°48'816.4
2019-Sep-08 20:30N 57°10' E 011°55'816.3
2019-Sep-08 20:00N 57°03' E 012°01'5915.9
2019-Sep-08 16:17N 56°07' E 012°34'517.0
2019-Sep-08 16:00N 56°03' E 012°40'816.4
2019-Sep-08 15:30N 55°55' E 012°44'815.9
2019-Sep-08 15:00N 55°47' E 012°42'612.1
2019-Sep-08 14:30N 55°42' E 012°36'0 0.2
2019-Sep-08 13:58N 55°42' E 012°36'0 0.0
2019-Sep-08 13:28N 55°42' E 012°36'0 0.0
2019-Sep-08 12:58N 55°42' E 012°36'0 0.0
2019-Sep-08 12:28N 55°42' E 012°36'0 0.0
2019-Sep-08 11:58N 55°42' E 012°36'0 0.0
2019-Sep-08 11:28N 55°42' E 012°36'0 0.0
2019-Sep-08 10:58N 55°42' E 012°36'0 0.0
2019-Sep-08 10:22N 55°42' E 012°36'0 0.0
2019-Sep-08 09:58N 55°42' E 012°36'0 0.0
2019-Sep-08 09:28N 55°42' E 012°36'0 0.0
2019-Sep-08 08:58N 55°42' E 012°36'0 0.0
2019-Sep-08 08:25N 55°42' E 012°36'0 0.0
2019-Sep-08 07:58N 55°42' E 012°36'0 0.7
2019-Sep-08 07:30N 55°42' E 012°36'5 9.4
2019-Sep-08 07:00N 55°46' E 012°41'714.2
2019-Sep-08 06:30N 55°53' E 012°39'815.5
2019-Sep-08 06:01N 56°01' E 012°40'914.9
2019-Sep-08 05:25N 56°08' E 012°30'6915.7
2019-Sep-08 01:02N 57°13' E 011°51'016.3
2019-Sep-08 01:01N 57°14' E 011°51'815.9
2019-Sep-08 00:30N 57°20' E 011°43'816.2
2019-Sep-08 00:01N 57°27' E 011°34'816.4
2019-Sep-07 23:30N 57°34' E 011°26'816.9
2019-Sep-07 23:01N 57°41' E 011°20'917.2
2019-Sep-07 22:31N 57°49' E 011°13'816.9
2019-Sep-07 22:01N 57°57' E 011°07'816.8
2019-Sep-07 21:30N 58°05' E 010°60'816.2
2019-Sep-07 21:00N 58°12' E 010°53'816.5
2019-Sep-07 20:30N 58°19' E 010°47'916.7
2019-Sep-07 19:58N 58°28' E 010°40'716.1
2019-Sep-07 19:30N 58°35' E 010°38'816.6
2019-Sep-07 19:00N 58°43' E 010°38'816.6
2019-Sep-07 18:30N 58°51' E 010°38'817.0
2019-Sep-07 18:00N 58°60' E 010°39'816.8
2019-Sep-07 17:30N 59°08' E 010°39'917.9
2019-Sep-07 17:01N 59°17' E 010°36'918.0
2019-Sep-07 16:31N 59°26' E 010°33'917.3
2019-Sep-07 16:01N 59°34' E 010°38'816.2
2019-Sep-07 15:30N 59°42' E 010°35'816.8
2019-Sep-07 15:00N 59°51' E 010°35'611.4
2019-Sep-07 14:30N 59°54' E 010°45'0 0.0
2019-Sep-07 14:00N 59°54' E 010°45'0 0.0
2019-Sep-07 13:30N 59°54' E 010°45'0 0.0
2019-Sep-07 13:00N 59°54' E 010°45'0 0.0
2019-Sep-07 12:30N 59°54' E 010°45'0 0.0
2019-Sep-07 12:00N 59°54' E 010°45'0 0.0
2019-Sep-07 11:30N 59°54' E 010°45'0 0.0
2019-Sep-07 11:00N 59°54' E 010°45'0 0.0
2019-Sep-07 10:30N 59°54' E 010°45'0 0.0
2019-Sep-07 10:00N 59°54' E 010°45'0 0.0
2019-Sep-07 09:30N 59°54' E 010°45'0 0.0
2019-Sep-07 09:00N 59°54' E 010°45'0 0.0
2019-Sep-07 08:30N 59°54' E 010°45'  

Dump ship's entire track history